createdAt,value
2019-05-29T00:00:13.408Z,7.63
2019-05-29T00:02:43.071Z,7.77
2019-05-29T00:05:12.201Z,7.73
2019-05-29T00:07:41.064Z,7.83
2019-05-29T00:10:10.470Z,7.80
2019-05-29T00:12:39.294Z,7.30
2019-05-29T00:15:08.458Z,8.30
2019-05-29T00:17:37.162Z,7.60
2019-05-29T00:20:06.684Z,7.50
2019-05-29T00:22:35.463Z,7.50
2019-05-29T00:25:06.722Z,8.00
2019-05-29T00:27:35.429Z,7.90
2019-05-29T00:30:06.926Z,7.37
2019-05-29T00:32:36.170Z,7.73
2019-05-29T00:35:08.224Z,7.63
2019-05-29T00:37:37.236Z,7.63
2019-05-29T00:40:08.921Z,8.10
2019-05-29T00:42:37.777Z,9.00
2019-05-29T00:45:11.359Z,8.53
2019-05-29T00:47:40.317Z,8.63
2019-05-29T00:50:10.082Z,9.63
2019-05-29T00:52:38.917Z,9.77
2019-05-29T00:55:08.723Z,10.33
2019-05-29T00:57:37.557Z,10.23
2019-05-29T01:00:07.224Z,10.10
2019-05-29T01:02:35.956Z,11.20
2019-05-29T01:05:06.688Z,14.87
2019-05-29T01:07:35.446Z,13.10
2019-05-29T01:10:05.806Z,11.13
2019-05-29T01:12:34.547Z,11.80
2019-05-29T01:15:03.304Z,12.20
2019-05-29T01:17:32.028Z,12.27
2019-05-29T01:20:00.748Z,13.07
2019-05-29T01:22:29.622Z,11.37
2019-05-29T01:24:58.354Z,11.77
2019-05-29T01:27:27.211Z,12.57
2019-05-29T01:29:56.216Z,12.53
2019-05-29T01:32:24.944Z,12.10
2019-05-29T01:34:53.666Z,12.77
2019-05-29T01:37:22.442Z,12.93
2019-05-29T01:39:51.179Z,12.50
2019-05-29T01:42:19.912Z,13.53
2019-05-29T01:44:48.792Z,12.73
2019-05-29T01:47:17.521Z,12.93
2019-05-29T01:49:46.646Z,12.40
2019-05-29T01:52:15.602Z,13.77
2019-05-29T01:54:44.318Z,13.77
2019-05-29T01:57:13.055Z,12.90
2019-05-29T01:59:42.039Z,13.20
2019-05-29T02:02:10.760Z,12.07
2019-05-29T02:04:39.492Z,12.37
2019-05-29T02:07:08.361Z,11.77
2019-05-29T02:09:37.094Z,11.83
2019-05-29T02:12:05.922Z,11.47
2019-05-29T02:14:34.727Z,11.10
2019-05-29T02:17:03.449Z,11.00
2019-05-29T02:19:32.175Z,10.33
2019-05-29T02:22:01.144Z,11.00
2019-05-29T02:24:29.869Z,10.40
2019-05-29T02:26:58.592Z,9.50
2019-05-29T02:29:27.671Z,10.27
2019-05-29T02:31:56.413Z,10.10
2019-05-29T02:34:27.273Z,9.67
2019-05-29T02:36:55.721Z,9.77
2019-05-29T02:39:25.637Z,10.13
2019-05-29T02:41:54.886Z,9.57
2019-05-29T02:44:25.281Z,9.10
2019-05-29T02:46:54.271Z,9.90
2019-05-29T02:49:23.871Z,8.83
2019-05-29T02:51:53.045Z,9.57
2019-05-29T02:54:22.556Z,9.37
2019-05-29T02:56:51.375Z,9.30
2019-05-29T02:59:21.055Z,9.47
2019-05-29T03:01:50.144Z,9.67
2019-05-29T03:04:18.989Z,9.70
2019-05-29T03:06:47.901Z,9.13
2019-05-29T03:09:16.627Z,10.03
2019-05-29T03:11:45.352Z,9.67
2019-05-29T03:14:14.139Z,9.43
2019-05-29T03:16:42.874Z,8.83
2019-05-29T03:19:11.596Z,9.07
2019-05-29T03:21:40.555Z,9.10
2019-05-29T03:24:09.288Z,9.20
2019-05-29T03:26:38.452Z,9.73
2019-05-29T03:29:07.471Z,11.83
2019-05-29T03:31:43.492Z,10.33
2019-05-29T03:34:06.661Z,8.87
2019-05-29T03:36:43.883Z,9.10
2019-05-29T03:39:07.264Z,9.50
2019-05-29T03:41:35.998Z,10.50
2019-05-29T03:44:04.858Z,9.53
2019-05-29T03:46:41.128Z,10.20
2019-05-29T03:49:14.075Z,9.80
2019-05-29T03:51:42.563Z,8.93
2019-05-29T03:54:11.294Z,8.93
2019-05-29T03:56:40.035Z,9.50
2019-05-29T03:59:08.997Z,8.60
2019-05-29T04:01:39.298Z,9.60
2019-05-29T04:04:08.032Z,9.57
2019-05-29T04:06:37.573Z,8.63
2019-05-29T04:09:07.374Z,9.27
2019-05-29T04:11:37.954Z,9.00
2019-05-29T04:14:07.276Z,9.10
2019-05-29T04:16:54.102Z,8.70
2019-05-29T04:19:07.119Z,7.77
2019-05-29T04:21:38.676Z,7.83
2019-05-29T04:24:08.116Z,8.20
2019-05-29T04:26:45.923Z,8.07
2019-05-29T04:29:14.849Z,9.67
2019-05-29T04:31:43.566Z,8.03
2019-05-29T04:34:12.540Z,7.47
2019-05-29T04:36:41.350Z,8.00
2019-05-29T04:39:10.110Z,7.63
2019-05-29T04:41:39.335Z,7.43
2019-05-29T04:44:08.309Z,7.63
2019-05-29T04:46:38.495Z,7.57
2019-05-29T04:49:07.603Z,9.20
2019-05-29T04:51:39.687Z,7.73
2019-05-29T04:54:08.226Z,7.13
2019-05-29T04:56:37.265Z,6.93
2019-05-29T04:59:05.999Z,7.27
2019-05-29T05:01:35.097Z,7.80
2019-05-29T05:04:03.873Z,7.07
2019-05-29T05:06:33.219Z,6.40
2019-05-29T05:09:01.999Z,7.57
2019-05-29T05:11:31.326Z,7.27
2019-05-29T05:14:01.700Z,7.43
2019-05-29T05:16:31.684Z,7.30
2019-05-29T05:19:00.686Z,6.77
2019-05-29T05:21:29.851Z,6.87
2019-05-29T05:23:58.717Z,7.90
2019-05-29T05:26:27.762Z,6.87
2019-05-29T05:28:56.502Z,6.17
2019-05-29T05:31:25.224Z,7.07
2019-05-29T05:33:54.092Z,6.67
2019-05-29T05:36:23.772Z,6.00
2019-05-29T05:38:52.491Z,5.93
2019-05-29T05:41:21.257Z,6.33
2019-05-29T05:43:49.968Z,6.10
2019-05-29T05:46:18.681Z,5.63
2019-05-29T05:48:47.584Z,7.03
2019-05-29T05:51:16.297Z,6.53
2019-05-29T05:53:45.012Z,6.63
2019-05-29T05:56:13.776Z,6.80
2019-05-29T05:58:42.563Z,6.73
2019-05-29T06:01:11.295Z,6.60
2019-05-29T06:03:42.215Z,6.80
2019-05-29T06:06:11.308Z,6.90
2019-05-29T06:08:40.305Z,6.10
2019-05-29T06:11:09.265Z,5.93
2019-05-29T06:13:38.392Z,7.03
2019-05-29T06:16:07.182Z,5.87
2019-05-29T06:18:36.561Z,8.17
2019-05-29T06:21:05.368Z,5.30
2019-05-29T06:23:34.771Z,5.43
2019-05-29T06:26:03.819Z,7.13
2019-05-29T06:28:32.993Z,5.37
2019-05-29T06:31:01.858Z,6.10
2019-05-29T06:33:30.725Z,6.53
2019-05-29T06:35:59.445Z,4.70
2019-05-29T06:38:28.168Z,4.90
2019-05-29T06:40:57.145Z,5.07
2019-05-29T06:43:26.670Z,5.50
2019-05-29T06:45:55.893Z,5.50
2019-05-29T06:48:41.408Z,4.80
2019-05-29T06:50:57.957Z,5.13
2019-05-29T06:53:26.797Z,4.50
2019-05-29T06:55:57.220Z,5.10
2019-05-29T06:58:26.091Z,6.27
2019-05-29T07:00:54.805Z,5.00
2019-05-29T07:03:23.706Z,6.90
2019-05-29T07:05:53.025Z,5.00
2019-05-29T07:08:37.520Z,4.80
2019-05-29T07:10:52.525Z,5.40
2019-05-29T07:13:21.255Z,5.47
2019-05-29T07:15:50.085Z,6.43
2019-05-29T07:18:18.960Z,4.83
2019-05-29T07:20:47.695Z,5.07
2019-05-29T07:23:16.418Z,7.10
2019-05-29T07:25:45.646Z,6.00
2019-05-29T07:28:14.568Z,5.30
2019-05-29T07:30:49.842Z,5.60
2019-05-29T07:33:13.787Z,5.33
2019-05-29T07:35:43.540Z,5.00
2019-05-29T07:38:12.409Z,5.30
2019-05-29T07:40:42.648Z,5.40
2019-05-29T07:43:11.683Z,4.70
2019-05-29T07:45:40.709Z,6.27
2019-05-29T07:48:10.710Z,5.27
2019-05-29T07:50:40.091Z,5.10
2019-05-29T07:53:08.925Z,4.77
2019-05-29T07:55:38.435Z,5.37
2019-05-29T07:58:10.166Z,4.60
2019-05-29T08:01:02.646Z,5.50
2019-05-29T08:03:09.911Z,4.97
2019-05-29T08:05:39.179Z,4.73
2019-05-29T08:08:08.022Z,4.83
2019-05-29T08:10:36.917Z,4.80
2019-05-29T08:13:06.906Z,4.50
2019-05-29T08:15:52.100Z,4.70
2019-05-29T08:18:06.167Z,5.50
2019-05-29T08:20:34.881Z,6.40
2019-05-29T08:23:03.602Z,5.27
2019-05-29T08:25:32.475Z,5.07
2019-05-29T08:28:01.180Z,4.33
2019-05-29T08:30:29.907Z,3.67
2019-05-29T08:32:58.741Z,3.75
2019-05-29T08:35:27.462Z,5.97
2019-05-29T08:37:56.183Z,3.77
2019-05-29T08:40:25.049Z,8.70
2019-05-29T08:42:53.835Z,3.47
2019-05-29T08:45:22.565Z,3.22
2019-05-29T08:47:51.941Z,3.95
2019-05-29T08:50:20.929Z,3.72
2019-05-29T08:52:50.118Z,4.25
2019-05-29T08:55:19.380Z,5.80
2019-05-29T08:57:48.451Z,4.27
2019-05-29T09:00:18.521Z,3.95
2019-05-29T09:02:48.910Z,4.67
2019-05-29T09:05:17.838Z,4.78
2019-05-29T09:07:48.347Z,4.15
2019-05-29T09:10:17.247Z,4.12
2019-05-29T09:12:54.996Z,4.37
2019-05-29T09:15:21.216Z,3.92
2019-05-29T09:17:47.337Z,4.25
2019-05-29T09:20:57.446Z,3.92
2019-05-29T09:23:01.887Z,3.90
2019-05-29T09:25:30.607Z,3.80
2019-05-29T09:27:59.372Z,3.95
2019-05-29T09:30:28.495Z,3.72
2019-05-29T09:32:57.222Z,3.90
2019-05-29T09:35:25.943Z,3.92
2019-05-29T09:37:54.831Z,3.67
2019-05-29T09:40:24.979Z,3.70
2019-05-29T09:42:53.753Z,3.98
2019-05-29T09:45:23.465Z,3.83
2019-05-29T09:47:52.275Z,3.72
2019-05-29T09:50:23.383Z,4.00
2019-05-29T09:52:53.213Z,3.52
2019-05-29T09:55:22.225Z,3.83
2019-05-29T09:57:53.474Z,3.30
2019-05-29T10:00:21.545Z,3.83
2019-05-29T10:02:50.282Z,3.52
2019-05-29T10:05:19.111Z,3.70
2019-05-29T10:07:47.964Z,3.55
2019-05-29T10:10:17.578Z,2.90
2019-05-29T10:12:46.308Z,5.87
2019-05-29T10:15:15.741Z,3.52
2019-05-29T10:17:44.590Z,3.60
2019-05-29T10:20:14.859Z,3.37
2019-05-29T10:22:43.633Z,5.42
2019-05-29T10:25:13.480Z,3.58
2019-05-29T10:27:42.213Z,3.52
2019-05-29T10:30:11.956Z,4.15
2019-05-29T10:32:42.452Z,3.47
2019-05-29T10:35:11.428Z,3.75
2019-05-29T10:37:40.323Z,3.80
2019-05-29T10:40:09.755Z,3.75
2019-05-29T10:42:38.488Z,3.40
2019-05-29T10:45:12.505Z,3.20
2019-05-29T10:47:41.311Z,3.65
2019-05-29T10:50:11.288Z,3.60
2019-05-29T10:52:40.128Z,3.55
2019-05-29T10:55:12.946Z,4.60
2019-05-29T10:57:41.692Z,3.22
2019-05-29T11:00:10.866Z,3.30
2019-05-29T11:02:39.683Z,4.00
2019-05-29T11:05:08.892Z,3.67
2019-05-29T11:07:37.756Z,3.47
2019-05-29T11:10:08.299Z,3.45
2019-05-29T11:12:39.526Z,3.35
2019-05-29T11:15:20.710Z,3.67
2019-05-29T11:17:40.059Z,3.63
2019-05-29T11:20:10.483Z,5.20
2019-05-29T11:22:39.392Z,3.40
2019-05-29T11:25:21.578Z,3.25
2019-05-29T11:27:38.934Z,4.67
2019-05-29T11:30:09.872Z,3.85
2019-05-29T11:32:38.589Z,4.10
2019-05-29T11:35:08.125Z,4.03
2019-05-29T11:37:36.925Z,4.30
2019-05-29T11:40:07.918Z,4.42
2019-05-29T11:42:36.632Z,3.22
2019-05-29T11:45:10.310Z,3.35
2019-05-29T11:47:39.022Z,3.20
2019-05-29T11:50:19.162Z,3.22
2019-05-29T11:52:43.220Z,3.98
2019-05-29T11:55:12.770Z,3.42
2019-05-29T11:57:43.481Z,3.33
2019-05-29T12:00:20.430Z,3.47
2019-05-29T12:02:45.183Z,3.45
2019-05-29T12:05:15.651Z,3.10
2019-05-29T12:07:44.526Z,3.27
2019-05-29T12:10:13.882Z,3.37
2019-05-29T12:12:42.591Z,3.30
2019-05-29T12:15:16.022Z,3.62
2019-05-29T12:17:42.447Z,3.42
2019-05-29T12:20:26.931Z,3.52
2019-05-29T12:23:10.956Z,3.00
2019-05-29T12:25:16.199Z,2.80
2019-05-29T12:27:44.950Z,3.35
2019-05-29T12:30:17.320Z,4.53
2019-05-29T12:32:46.044Z,3.35
2019-05-29T12:35:15.164Z,3.37
2019-05-29T12:37:44.029Z,3.05
2019-05-29T12:40:14.312Z,3.17
2019-05-29T12:42:45.051Z,3.27
2019-05-29T12:45:14.058Z,3.05
2019-05-29T12:47:42.777Z,3.33
2019-05-29T12:50:13.661Z,3.30
2019-05-29T12:52:43.036Z,3.20
2019-05-29T12:55:12.252Z,2.83
2019-05-29T12:57:41.091Z,3.27
2019-05-29T13:00:11.192Z,2.87
2019-05-29T13:02:40.047Z,2.77
2019-05-29T13:05:18.005Z,2.80
2019-05-29T13:07:39.918Z,3.80
2019-05-29T13:10:09.436Z,2.77
2019-05-29T13:12:38.261Z,3.67
2019-05-29T13:15:15.135Z,3.92
2019-05-29T13:17:43.852Z,3.17
2019-05-29T13:20:21.211Z,3.95
2019-05-29T13:22:43.688Z,2.95
2019-05-29T13:25:14.318Z,2.70
2019-05-29T13:27:43.045Z,3.60
2019-05-29T13:30:13.205Z,5.62
2019-05-29T13:32:42.521Z,2.80
2019-05-29T13:35:12.939Z,3.20
2019-05-29T13:37:41.826Z,3.35
2019-05-29T13:40:14.244Z,3.98
2019-05-29T13:42:42.975Z,2.58
2019-05-29T13:45:17.690Z,2.92
2019-05-29T13:47:42.696Z,3.60
2019-05-29T13:50:12.742Z,2.62
2019-05-29T13:52:41.866Z,3.22
2019-05-29T13:55:12.131Z,4.53
2019-05-29T13:57:40.866Z,4.10
2019-05-29T14:00:33.696Z,3.67
2019-05-29T14:02:44.339Z,4.33
2019-05-29T14:05:15.074Z,6.10
2019-05-29T14:07:43.956Z,3.75
2019-05-29T14:10:13.100Z,5.47
2019-05-29T14:12:41.840Z,8.58
2019-05-29T14:15:12.423Z,6.53
2019-05-29T14:17:41.261Z,3.15
2019-05-29T14:20:11.260Z,4.00
2019-05-29T14:22:40.309Z,3.15
2019-05-29T14:25:11.538Z,3.12
2019-05-29T14:27:40.544Z,6.67
2019-05-29T14:30:11.291Z,3.15
2019-05-29T14:32:40.036Z,3.00
2019-05-29T14:35:10.997Z,8.00
2019-05-29T14:37:40.132Z,15.83
2019-05-29T14:40:12.133Z,2.90
2019-05-29T14:42:41.071Z,3.43
2019-05-29T14:45:10.605Z,6.43
2019-05-29T14:47:39.539Z,8.73
2019-05-29T14:50:11.180Z,6.00
2019-05-29T14:52:40.632Z,8.47
2019-05-29T14:55:14.127Z,4.03
2019-05-29T14:57:40.062Z,2.30
2019-05-29T15:00:22.223Z,2.43
2019-05-29T15:02:41.605Z,2.47
2019-05-29T15:05:12.093Z,2.20
2019-05-29T15:07:41.444Z,2.30
2019-05-29T15:10:22.727Z,3.00
2019-05-29T15:12:41.139Z,6.50
2019-05-29T15:15:13.156Z,4.20
2019-05-29T15:17:41.390Z,3.53
2019-05-29T15:20:12.516Z,2.53
2019-05-29T15:22:42.207Z,2.40
2019-05-29T15:25:19.973Z,2.80
2019-05-29T15:27:42.027Z,2.63
2019-05-29T15:30:17.619Z,2.70
2019-05-29T15:32:42.475Z,2.63
2019-05-29T15:35:14.869Z,2.50
2019-05-29T15:37:42.062Z,5.60
2019-05-29T15:40:12.877Z,3.00
2019-05-29T15:42:41.687Z,3.27
2019-05-29T15:45:14.025Z,3.13
2019-05-29T15:47:42.940Z,2.50
2019-05-29T15:50:13.611Z,2.37
2019-05-29T15:52:43.231Z,2.73
2019-05-29T15:55:32.167Z,2.57
2019-05-29T15:57:44.689Z,3.10
2019-05-29T16:00:15.634Z,2.57
2019-05-29T16:02:48.378Z,3.27
2019-05-29T16:05:17.229Z,2.90
2019-05-29T16:07:46.367Z,2.60
2019-05-29T16:10:18.534Z,2.90
2019-05-29T16:12:45.916Z,2.60
2019-05-29T16:15:15.340Z,3.00
2019-05-29T16:17:44.289Z,2.60
2019-05-29T16:20:14.268Z,2.80
2019-05-29T16:22:43.341Z,2.77
2019-05-29T16:25:12.787Z,3.07
2019-05-29T16:27:41.664Z,3.20
2019-05-29T16:30:13.454Z,3.90
2019-05-29T16:32:42.459Z,4.37
2019-05-29T16:35:13.075Z,2.80
2019-05-29T16:37:41.976Z,2.63
2019-05-29T16:40:11.931Z,4.20
2019-05-29T16:42:40.682Z,4.33
2019-05-29T16:45:12.227Z,3.10
2019-05-29T16:47:41.059Z,3.07
2019-05-29T16:50:10.581Z,2.67
2019-05-29T16:52:39.539Z,2.60
2019-05-29T16:55:09.111Z,2.90
2019-05-29T16:57:37.852Z,2.33
2019-05-29T17:00:11.510Z,2.87
2019-05-29T17:02:40.401Z,2.77
2019-05-29T17:05:09.620Z,2.50
2019-05-29T17:07:38.906Z,2.83
2019-05-29T17:10:08.316Z,2.70
2019-05-29T17:12:37.058Z,2.80
2019-05-29T17:15:11.795Z,2.93
2019-05-29T17:17:40.504Z,2.50
2019-05-29T17:20:09.741Z,2.67
2019-05-29T17:22:38.785Z,2.90
2019-05-29T17:25:08.112Z,2.73
2019-05-29T17:27:36.828Z,2.47
2019-05-29T17:30:09.872Z,2.90
2019-05-29T17:32:38.606Z,2.80
2019-05-29T17:35:09.407Z,2.43
2019-05-29T17:37:38.544Z,4.00
2019-05-29T17:40:08.366Z,2.70
2019-05-29T17:42:37.083Z,2.97
2019-05-29T17:45:10.317Z,3.37
2019-05-29T17:47:39.471Z,3.70
2019-05-29T17:50:09.278Z,3.93
2019-05-29T17:52:38.091Z,5.40
2019-05-29T17:55:12.078Z,3.87
2019-05-29T17:57:40.799Z,2.83
2019-05-29T18:00:13.139Z,3.57
2019-05-29T18:02:51.509Z,2.90
2019-05-29T18:05:12.889Z,2.57
2019-05-29T18:07:41.870Z,3.17
2019-05-29T18:10:12.388Z,2.60
2019-05-29T18:12:41.201Z,3.00
2019-05-29T18:15:10.969Z,2.67
2019-05-29T18:17:39.883Z,2.83
2019-05-29T18:20:14.206Z,2.87
2019-05-29T18:22:41.028Z,2.60
2019-05-29T18:25:10.646Z,3.00
2019-05-29T18:27:39.361Z,3.83
2019-05-29T18:30:10.440Z,3.53
2019-05-29T18:32:39.172Z,2.73
2019-05-29T18:35:08.683Z,3.23
2019-05-29T18:37:37.534Z,3.10
2019-05-29T18:40:12.265Z,3.10
2019-05-29T18:42:38.400Z,2.90
2019-05-29T18:45:19.775Z,3.03
2019-05-29T18:47:38.607Z,2.83
2019-05-29T18:50:13.867Z,3.70
2019-05-29T18:52:42.593Z,4.20
2019-05-29T18:55:11.673Z,2.90
2019-05-29T18:57:40.560Z,3.40
2019-05-29T19:00:10.575Z,5.43
2019-05-29T19:02:39.391Z,4.70
2019-05-29T19:05:08.892Z,6.70
2019-05-29T19:07:37.636Z,4.60
2019-05-29T19:10:07.309Z,3.97
2019-05-29T19:12:36.186Z,3.20
2019-05-29T19:15:07.881Z,3.27
2019-05-29T19:17:36.611Z,3.57
2019-05-29T19:20:06.903Z,3.00
2019-05-29T19:22:35.608Z,3.40
2019-05-29T19:25:07.890Z,3.23
2019-05-29T19:27:41.408Z,3.50
2019-05-29T19:30:13.421Z,3.90
2019-05-29T19:32:42.910Z,3.30
2019-05-29T19:35:12.132Z,3.60
2019-05-29T19:37:40.904Z,3.50
2019-05-29T19:40:10.204Z,3.67
2019-05-29T19:42:38.950Z,3.50
2019-05-29T19:45:11.011Z,4.10
2019-05-29T19:47:39.861Z,3.77
2019-05-29T19:50:11.269Z,3.97
2019-05-29T19:52:40.231Z,4.13
2019-05-29T19:55:10.033Z,3.67
2019-05-29T19:57:54.925Z,3.30
2019-05-29T20:00:10.886Z,3.80
2019-05-29T20:02:40.449Z,3.30
2019-05-29T20:05:09.466Z,4.03
2019-05-29T20:07:38.681Z,4.27
2019-05-29T20:10:09.321Z,4.00
2019-05-29T20:12:39.515Z,3.60
2019-05-29T20:15:08.541Z,3.57
2019-05-29T20:17:38.518Z,4.33
2019-05-29T20:20:07.814Z,3.97
2019-05-29T20:22:36.991Z,3.83
2019-05-29T20:25:09.364Z,4.13
2019-05-29T20:27:38.559Z,4.10
2019-05-29T20:30:10.032Z,4.20
2019-05-29T20:32:39.054Z,4.50
2019-05-29T20:35:07.838Z,4.47
2019-05-29T20:37:36.559Z,5.13
2019-05-29T20:40:07.282Z,4.70
2019-05-29T20:42:36.377Z,4.77
2019-05-29T20:45:07.014Z,5.40
2019-05-29T20:47:35.869Z,4.83
2019-05-29T20:50:06.152Z,4.90
2019-05-29T20:52:35.210Z,5.47
2019-05-29T20:55:05.139Z,5.30
2019-05-29T20:57:33.868Z,5.57
2019-05-29T21:00:02.569Z,4.87
2019-05-29T21:02:32.030Z,5.27
2019-05-29T21:05:00.765Z,4.97
2019-05-29T21:07:29.478Z,4.70
2019-05-29T21:09:58.238Z,4.70
2019-05-29T21:12:26.963Z,5.00
2019-05-29T21:14:55.692Z,4.73
2019-05-29T21:17:24.446Z,4.40
2019-05-29T21:19:53.159Z,4.20
2019-05-29T21:22:22.802Z,4.77
2019-05-29T21:25:02.834Z,4.53
2019-05-29T21:27:22.127Z,4.10
2019-05-29T21:29:50.860Z,4.07
2019-05-29T21:32:19.691Z,3.70
2019-05-29T21:34:48.419Z,4.00
2019-05-29T21:37:17.134Z,4.03
2019-05-29T21:39:46.683Z,4.50
2019-05-29T21:42:15.588Z,4.30
2019-05-29T21:44:44.887Z,4.23
2019-05-29T21:47:13.868Z,4.20
2019-05-29T21:49:43.278Z,4.00
2019-05-29T21:52:12.105Z,4.00
2019-05-29T21:54:41.430Z,4.33
2019-05-29T21:57:10.182Z,4.40
2019-05-29T21:59:39.655Z,4.33
2019-05-29T22:02:09.145Z,4.40
2019-05-29T22:04:38.369Z,4.17
2019-05-29T22:07:07.457Z,4.43
2019-05-29T22:09:36.320Z,4.70
2019-05-29T22:12:05.242Z,4.40
2019-05-29T22:14:34.004Z,4.23
2019-05-29T22:17:02.892Z,4.50
2019-05-29T22:19:31.602Z,4.90
2019-05-29T22:22:01.308Z,4.63
2019-05-29T22:24:30.256Z,5.37
2019-05-29T22:26:59.370Z,5.30
2019-05-29T22:29:28.176Z,5.57
2019-05-29T22:31:57.535Z,5.73
2019-05-29T22:34:26.372Z,5.80
2019-05-29T22:36:55.459Z,6.37
2019-05-29T22:39:24.426Z,6.33
2019-05-29T22:41:53.457Z,6.40
2019-05-29T22:44:22.245Z,6.90
2019-05-29T22:46:51.647Z,7.60
2019-05-29T22:49:20.411Z,7.47
2019-05-29T22:51:49.126Z,7.63
2019-05-29T22:54:18.017Z,7.63
2019-05-29T22:56:46.730Z,8.10
2019-05-29T22:59:30.894Z,8.13
2019-05-29T23:01:45.956Z,8.13
2019-05-29T23:04:14.672Z,8.30
2019-05-29T23:06:43.388Z,8.37
2019-05-29T23:09:12.252Z,8.00
2019-05-29T23:11:40.967Z,7.60
2019-05-29T23:14:09.684Z,8.07
2019-05-29T23:16:38.735Z,8.10
2019-05-29T23:19:07.462Z,7.97
2019-05-29T23:21:36.162Z,7.67
2019-05-29T23:24:05.450Z,7.90
2019-05-29T23:26:34.175Z,7.47
2019-05-29T23:29:03.916Z,7.40
2019-05-29T23:31:32.722Z,6.80
2019-05-29T23:34:01.441Z,6.63
2019-05-29T23:36:30.155Z,6.53
2019-05-29T23:38:59.301Z,6.10
2019-05-29T23:41:28.041Z,5.90
2019-05-29T23:43:57.432Z,6.00
2019-05-29T23:46:26.390Z,6.80
2019-05-29T23:48:55.393Z,5.70
2019-05-29T23:51:24.215Z,6.60
2019-05-29T23:53:53.594Z,6.43
2019-05-29T23:56:22.388Z,6.60
2019-05-29T23:58:51.103Z,6.60
